Newtown, Virginia
Current Conditions -  °F | °C
As of 8:35 AM on Saturday 25 Oct 2014 (Local Time) from KXSA Reporting Station
Clear Clear  
Wind Chill: 42°   Ceiling: Unl
Heat Index: 42°   Visibility: 10mi
Dew Point: 40°   Wind: 0mph
Humidity: 91%   Direction: NA
Pressure: 29.99"   Gusts: NA
Location:  37.91°N, 77.12°W
Report Text: KXSA 251235Z AUTO 00000KT 10SM CLR 06/04 A2999 RMK AO2 T00550042
Loading
Personal Weather Stations






























Interactive Weather Map
Tropical Storm Tracking
New forecast layout! Learn more

10-Day Weather Forecast

Advertisements
Track Severe Weather on mobile